Time;durP1;ratioP1;P1;durP2;ratioP2;P2;SDS_P1;SDS_P2;PMS_P1;PMS_P2;Temp;Humidity;BMP_temperature;BMP_pressure;BME280_temperature;BME280_humidity;BME280_pressure;Samples;Min_cycle;Max_cycle;Signal;HPM_P1;HPM_P2
2023/10/09 00:02:54;;;;;;;1.10;1.05;;;;;;;;;;5000939;28;58434;-69
2023/10/09 00:05:23;;;;;;;1.07;1.03;;;;;;;;;;5000158;28;59172;-67
2023/10/09 00:07:48;;;;;;;1.17;0.57;;;;;;;;;;4997839;28;60215;-68
2023/10/09 00:10:14;;;;;;;0.80;0.50;;;;;;;;;;5000213;28;59904;-69
2023/10/09 00:12:43;;;;;;;1.33;0.80;;;;;;;;;;5000147;28;58664;-69
2023/10/09 00:15:13;;;;;;;0.95;0.60;;;;;;;;;;5002725;28;60287;-70
2023/10/09 00:17:39;;;;;;;1.88;0.82;;;;;;;;;;4996441;28;59162;-69
2023/10/09 00:20:17;;;;;;;1.38;0.40;;;;;;;;;;5000231;28;58453;-69
2023/10/09 00:22:45;;;;;;;0.73;0.45;;;;;;;;;;5000186;28;59466;-68
2023/10/09 00:25:10;;;;;;;;;;;;;;;;;;5000749;28;59799;-70
2023/10/09 00:27:42;;;;;;;1.15;0.60;;;;;;;;;;5001009;28;58544;-69
2023/10/09 00:30:15;;;;;;;0.55;0.55;;;;;;;;;;4999143;28;58934;-69
2023/10/09 00:32:51;;;;;;;1.02;0.93;;;;;;;;;;5000983;28;58604;-68
2023/10/09 00:38:14;;;;;;;1.02;0.90;;;;;;;;;;4996755;28;58281;-69
2023/10/09 00:40:45;;;;;;;1.67;1.30;;;;;;;;;;4999405;28;58505;-69
2023/10/09 00:43:13;;;;;;;0.70;0.70;;;;;;;;;;4993798;28;60492;-68
2023/10/09 00:45:40;;;;;;;1.17;0.77;;;;;;;;;;4997919;28;58628;-70
2023/10/09 00:48:06;;;;;;;1.13;0.77;;;;;;;;;;4999887;28;58522;-69
2023/10/09 00:50:35;;;;;;;1.05;0.80;;;;;;;;;;4999057;28;58971;-68
2023/10/09 00:53:09;;;;;;;1.70;0.88;;;;;;;;;;4997665;28;58627;-70
2023/10/09 00:58:14;;;;;;;0.70;0.70;;;;;;;;;;4993274;28;59089;-66
2023/10/09 01:00:46;;;;;;;2.35;0.60;;;;;;;;;;4999083;28;58557;-65
2023/10/09 01:05:51;;;;;;;1.30;0.82;;;;;;;;;;4997435;28;58374;-67
2023/10/09 01:08:24;;;;;;;0.80;0.80;;;;;;;;;;4998399;28;58528;-67
2023/10/09 01:10:56;;;;;;;0.68;0.68;;;;;;;;;;5000321;28;59578;-67
2023/10/09 01:13:27;;;;;;;1.02;0.75;;;;;;;;;;4998369;28;58523;-68
2023/10/09 01:15:53;;;;;;;2.53;0.80;;;;;;;;;;5002708;28;63908;-67
2023/10/09 01:18:19;;;;;;;0.57;0.57;;;;;;;;;;4996637;28;59105;-67
2023/10/09 01:20:45;;;;;;;1.15;0.60;;;;;;;;;;4994070;28;58498;-70
2023/10/09 01:23:11;;;;;;;0.70;0.63;;;;;;;;;;4997422;28;59597;-69
2023/10/09 01:25:42;;;;;;;2.58;0.50;;;;;;;;;;4997967;28;58485;-69
2023/10/09 01:28:08;;;;;;;0.47;0.47;;;;;;;;;;4998012;28;58529;-69
2023/10/09 01:30:33;;;;;;;0.90;0.57;;;;;;;;;;4995658;28;59443;-68
2023/10/09 01:33:00;;;;;;;1.20;0.90;;;;;;;;;;4994801;28;58966;-67
2023/10/09 01:35:26;;;;;;;0.40;0.40;;;;;;;;;;4996719;28;58702;-68
2023/10/09 01:37:52;;;;;;;0.57;0.57;;;;;;;;;;4994590;28;58748;-68
2023/10/09 01:40:27;;;;;;;0.90;0.73;;;;;;;;;;4998203;28;58360;-68
2023/10/09 01:42:52;;;;;;;1.30;1.17;;;;;;;;;;4995113;28;64335;-68
2023/10/09 01:47:51;;;;;;;;;;;;;;;;;;5000643;28;58564;-68
2023/10/09 01:50:22;;;;;;;0.63;0.50;;;;;;;;;;5003103;28;59272;-68
2023/10/09 01:52:47;;;;;;;0.90;0.80;;;;;;;;;;5002373;28;58837;-68
2023/10/09 01:55:28;;;;;;;1.50;0.77;;;;;;;;;;4999287;28;58459;-67
2023/10/09 01:57:54;;;;;;;1.25;0.68;;;;;;;;;;4999853;28;63671;-67
2023/10/09 02:00:23;;;;;;;0.57;0.57;;;;;;;;;;4999503;28;58357;-68
2023/10/09 02:02:50;;;;;;;1.25;0.50;;;;;;;;;;5002673;28;60206;-68
2023/10/09 02:07:40;;;;;;;2.22;0.82;;;;;;;;;;5001008;28;58434;-68
2023/10/09 02:10:25;;;;;;;0.70;0.70;;;;;;;;;;5002314;28;60661;-67
2023/10/09 02:12:57;;;;;;;0.57;0.57;;;;;;;;;;5000965;28;63117;-68
2023/10/09 02:20:55;;;;;;;0.70;0.63;;;;;;;;;;5000851;28;58414;-67
2023/10/09 02:23:30;;;;;;;0.40;0.40;;;;;;;;;;5000912;28;59600;-68
2023/10/09 02:26:01;;;;;;;0.75;0.50;;;;;;;;;;4998894;28;59857;-68
2023/10/09 02:28:32;;;;;;;0.80;0.50;;;;;;;;;;4999829;28;58396;-68
2023/10/09 02:31:00;;;;;;;0.40;0.30;;;;;;;;;;5000829;28;60541;-67
2023/10/09 02:33:28;;;;;;;0.95;0.55;;;;;;;;;;4998976;28;59694;-68
2023/10/09 02:35:54;;;;;;;;;;;;;;;;;;5000629;28;58529;-68
2023/10/09 02:38:22;;;;;;;0.95;0.70;;;;;;;;;;4997604;28;59549;-68
2023/10/09 02:43:44;;;;;;;0.60;0.60;;;;;;;;;;4999544;28;58422;-68
2023/10/09 02:46:28;;;;;;;0.55;0.55;;;;;;;;;;5000613;28;59165;-68
2023/10/09 02:48:56;;;;;;;0.52;0.50;;;;;;;;;;5001917;28;58526;-68
2023/10/09 02:51:32;;;;;;;0.60;0.60;;;;;;;;;;4999324;28;59326;-67
2023/10/09 02:54:07;;;;;;;0.60;0.60;;;;;;;;;;5000649;28;59139;-68
2023/10/09 02:56:43;;;;;;;0.80;0.70;;;;;;;;;;5000294;28;58416;-67
2023/10/09 02:59:08;;;;;;;0.65;0.57;;;;;;;;;;5000595;28;59402;-68
2023/10/09 03:01:34;;;;;;;0.73;0.30;;;;;;;;;;5000743;28;59229;-67
2023/10/09 03:04:02;;;;;;;0.47;0.47;;;;;;;;;;5001409;28;59625;-68
2023/10/09 03:06:30;;;;;;;0.60;0.60;;;;;;;;;;4999282;28;59386;-68
2023/10/09 03:08:56;;;;;;;0.90;0.70;;;;;;;;;;4999482;28;58645;-68
2023/10/09 03:11:21;;;;;;;0.52;0.40;;;;;;;;;;4998779;28;59527;-67
2023/10/09 03:13:47;;;;;;;0.57;0.57;;;;;;;;;;4999360;28;59009;-68
2023/10/09 03:16:16;;;;;;;0.80;0.50;;;;;;;;;;5001525;28;58409;-67
2023/10/09 03:18:41;;;;;;;0.75;0.70;;;;;;;;;;4998925;28;59338;-68
2023/10/09 03:21:06;;;;;;;0.57;0.57;;;;;;;;;;5001104;28;59863;-68
2023/10/09 03:23:34;;;;;;;0.73;0.73;;;;;;;;;;5001517;28;58501;-68
2023/10/09 03:25:59;;;;;;;0.50;0.50;;;;;;;;;;4999093;28;60118;-68
2023/10/09 03:28:24;;;;;;;0.40;0.40;;;;;;;;;;5000041;28;58398;-67
2023/10/09 03:30:50;;;;;;;0.43;0.43;;;;;;;;;;5001936;28;59737;-68
2023/10/09 03:33:15;;;;;;;0.50;0.50;;;;;;;;;;4999544;28;58517;-67
2023/10/09 03:35:41;;;;;;;0.70;0.47;;;;;;;;;;4999405;28;58856;-67
2023/10/09 03:38:12;;;;;;;0.50;0.50;;;;;;;;;;5000770;28;59176;-68
2023/10/09 03:40:39;;;;;;;0.40;0.40;;;;;;;;;;4998092;28;59011;-68
2023/10/09 03:43:04;;;;;;;0.60;0.60;;;;;;;;;;5001088;28;58545;-68
2023/10/09 03:45:31;;;;;;;0.40;0.40;;;;;;;;;;4998851;28;59255;-69
2023/10/09 03:48:14;;;;;;;0.55;0.55;;;;;;;;;;4999583;28;58509;-68
2023/10/09 03:50:43;;;;;;;1.25;0.88;;;;;;;;;;5000478;28;58463;-67
2023/10/09 03:53:08;;;;;;;0.70;0.70;;;;;;;;;;5001655;28;58565;-68
2023/10/09 03:55:39;;;;;;;0.93;0.80;;;;;;;;;;4997905;28;58429;-68
2023/10/09 03:58:06;;;;;;;0.60;0.60;;;;;;;;;;5001605;28;60135;-68
2023/10/09 04:00:31;;;;;;;0.77;0.47;;;;;;;;;;4998517;28;59048;-68
2023/10/09 04:02:57;;;;;;;0.60;0.50;;;;;;;;;;4996982;28;58592;-68
2023/10/09 04:05:23;;;;;;;0.40;0.40;;;;;;;;;;4999320;28;58478;-68
2023/10/09 04:07:49;;;;;;;0.52;0.50;;;;;;;;;;4999494;28;58893;-68
2023/10/09 04:10:32;;;;;;;0.80;0.80;;;;;;;;;;4999044;28;59940;-68
2023/10/09 04:12:58;;;;;;;0.73;0.73;;;;;;;;;;4998811;28;64435;-68
2023/10/09 04:15:24;;;;;;;0.90;0.52;;;;;;;;;;4992917;28;58479;-67
2023/10/09 04:17:51;;;;;;;1.02;0.93;;;;;;;;;;4989529;28;59387;-68
2023/10/09 04:22:50;;;;;;;0.40;0.40;;;;;;;;;;4994541;28;58414;-68
2023/10/09 04:25:25;;;;;;;0.75;0.75;;;;;;;;;;5000869;28;59619;-68
2023/10/09 04:27:53;;;;;;;1.10;1.10;;;;;;;;;;4976376;28;64264;-68
2023/10/09 04:30:18;;;;;;;0.90;0.75;;;;;;;;;;4996592;28;58384;-68
2023/10/09 04:32:46;;;;;;;0.50;0.50;;;;;;;;;;4990437;28;58764;-68
2023/10/09 04:35:24;;;;;;;0.50;0.50;;;;;;;;;;5000279;28;58561;-66
2023/10/09 04:38:00;;;;;;;1.40;0.70;;;;;;;;;;4997964;28;60127;-66
2023/10/09 04:43:20;;;;;;;0.75;0.63;;;;;;;;;;4997879;28;58350;-66
2023/10/09 04:48:38;;;;;;;0.50;0.50;;;;;;;;;;4999566;28;58407;-68
2023/10/09 04:53:59;;;;;;;1.88;1.20;;;;;;;;;;4993013;28;58577;-66
2023/10/09 04:56:25;;;;;;;5.53;2.08;;;;;;;;;;4990841;28;59150;-68
2023/10/09 04:59:03;;;;;;;1.43;1.20;;;;;;;;;;4998208;28;59449;-65
2023/10/09 05:01:43;;;;;;;1.77;1.48;;;;;;;;;;4994680;28;60021;-65
2023/10/09 05:04:34;;;;;;;2.17;1.58;;;;;;;;;;4998265;28;58453;-65
2023/10/09 05:06:57;;;;;;;1.67;1.58;;;;;;;;;;4998272;28;63075;-66
2023/10/09 05:09:22;;;;;;;2.40;1.23;;;;;;;;;;4997290;28;59709;-66
2023/10/09 05:14:17;;;;;;;;;;;;;;;;;;4997707;28;58434;-66
2023/10/09 05:16:54;;;;;;;2.15;1.52;;;;;;;;;;4997823;28;58484;-66
2023/10/09 05:22:09;;;;;;;2.30;1.85;;;;;;;;;;4999270;28;62525;-66
2023/10/09 05:24:45;;;;;;;2.95;1.58;;;;;;;;;;4999664;28;58421;-67
2023/10/09 05:27:24;;;;;;;2.60;1.67;;;;;;;;;;5001018;28;59406;-67
2023/10/09 05:29:59;;;;;;;1.85;1.58;;;;;;;;;;5003682;28;58875;-66
2023/10/09 05:32:35;;;;;;;1.20;1.10;;;;;;;;;;5002949;28;58385;-66
2023/10/09 05:37:26;;;;;;;1.58;1.42;;;;;;;;;;5004743;28;58493;-66
2023/10/09 05:48:03;;;;;;;2.67;1.77;;;;;;;;;;5001710;28;58656;-66
2023/10/09 06:03:23;;;;;;;4.25;1.45;;;;;;;;;;5004027;28;59543;-67
2023/10/09 06:11:38;;;;;;;1.85;1.70;;;;;;;;;;5004749;28;58938;-66
2023/10/09 06:14:49;;;;;;;3.75;1.35;;;;;;;;;;5008612;28;58526;-68
2023/10/09 06:16:41;;;;;;;2.50;1.80;;;;;;;;;;5001052;28;59301;-67
2023/10/09 06:19:26;;;;;;;1.88;1.70;;;;;;;;;;5000956;28;58472;-68
2023/10/09 06:24:54;;;;;;;1.63;1.40;;;;;;;;;;4987325;28;58524;-65
2023/10/09 06:30:14;;;;;;;1.50;1.40;;;;;;;;;;5002636;28;59171;-68
2023/10/09 06:32:50;;;;;;;3.65;2.03;;;;;;;;;;5001259;28;59410;-67
2023/10/09 06:35:16;;;;;;;2.95;1.70;;;;;;;;;;4989777;28;58504;-67
2023/10/09 06:43:09;;;;;;;2.65;1.60;;;;;;;;;;4998132;28;58516;-66
2023/10/09 06:45:44;;;;;;;1.80;1.70;;;;;;;;;;4998731;28;58981;-66
2023/10/09 06:48:40;;;;;;;1.45;1.23;;;;;;;;;;5001645;28;59251;-69
2023/10/09 06:51:07;;;;;;;2.30;1.70;;;;;;;;;;4999213;28;60156;-66
2023/10/09 06:56:48;;;;;;;2.20;1.70;;;;;;;;;;4998616;28;58389;-67
2023/10/09 06:59:15;;;;;;;2.80;1.55;;;;;;;;;;5001831;28;59968;-69
2023/10/09 07:01:43;;;;;;;2.17;1.50;;;;;;;;;;4999359;28;59071;-70
2023/10/09 07:04:18;;;;;;;2.08;1.50;;;;;;;;;;4999732;28;58588;-68
2023/10/09 07:14:07;;;;;;;1.73;1.63;;;;;;;;;;4996632;28;58719;-67
2023/10/09 07:16:39;;;;;;;3.45;1.60;;;;;;;;;;4999171;28;58374;-67
2023/10/09 07:19:35;;;;;;;4.18;1.70;;;;;;;;;;5000412;28;58362;-68
2023/10/09 07:22:02;;;;;;;1.52;1.30;;;;;;;;;;5000032;28;62740;-68
2023/10/09 07:24:37;;;;;;;3.40;1.52;;;;;;;;;;4998990;28;58361;-72
2023/10/09 07:27:08;;;;;;;2.20;2.00;;;;;;;;;;4998273;28;58587;-71
2023/10/09 07:29:47;;;;;;;4.32;1.48;;;;;;;;;;4998219;28;59057;-73
2023/10/09 07:32:12;;;;;;;2.40;1.42;;;;;;;;;;4998731;28;58502;-70
2023/10/09 07:35:11;;;;;;;1.73;1.43;;;;;;;;;;4997447;28;58462;-69
2023/10/09 07:37:34;;;;;;;1.70;1.42;;;;;;;;;;4996765;28;58884;-68
2023/10/09 07:40:06;;;;;;;2.00;1.45;;;;;;;;;;4998418;28;59051;-71
2023/10/09 07:43:05;;;;;;;1.90;1.50;;;;;;;;;;4999882;28;59761;-71
2023/10/09 07:48:04;;;;;;;1.80;1.70;;;;;;;;;;4999446;28;59268;-67
2023/10/09 07:50:48;;;;;;;1.92;1.42;;;;;;;;;;4995954;28;59371;-68
2023/10/09 07:53:26;;;;;;;1.75;1.48;;;;;;;;;;4997379;28;58695;-71
2023/10/09 07:55:55;;;;;;;1.77;1.33;;;;;;;;;;4999667;28;59670;-71
2023/10/09 07:58:30;;;;;;;1.85;1.55;;;;;;;;;;5001119;28;58522;-68
2023/10/09 08:01:15;;;;;;;2.03;1.77;;;;;;;;;;4999650;28;62110;-73
2023/10/09 08:03:41;;;;;;;2.47;2.25;;;;;;;;;;5000194;28;60147;-69
2023/10/09 08:14:20;;;;;;;2.65;1.45;;;;;;;;;;4998015;28;58402;-72
2023/10/09 08:16:46;;;;;;;2.38;1.42;;;;;;;;;;4999609;28;59483;-70
2023/10/09 08:24:41;;;;;;;1.38;1.27;;;;;;;;;;4997494;28;58468;-70
2023/10/09 08:30:12;;;;;;;1.50;1.33;;;;;;;;;;4996503;28;58421;-68
2023/10/09 08:32:40;;;;;;;1.27;1.17;;;;;;;;;;4994246;28;58817;-67
2023/10/09 08:35:19;;;;;;;3.13;1.48;;;;;;;;;;4994300;28;58457;-69
2023/10/09 08:37:47;;;;;;;1.70;1.50;;;;;;;;;;4997635;28;58578;-68
2023/10/09 08:40:18;;;;;;;1.92;1.40;;;;;;;;;;4998547;28;58582;-67
2023/10/09 08:42:43;;;;;;;1.65;1.30;;;;;;;;;;4999761;28;58515;-68
2023/10/09 08:45:14;;;;;;;1.52;1.40;;;;;;;;;;4998288;28;58956;-68
2023/10/09 08:47:39;;;;;;;4.07;1.33;;;;;;;;;;4999858;28;58437;-71
2023/10/09 08:50:10;;;;;;;2.40;1.37;;;;;;;;;;4998136;28;59233;-67
2023/10/09 08:52:36;;;;;;;1.17;0.98;;;;;;;;;;4994678;28;58886;-68
2023/10/09 08:55:02;;;;;;;6.97;1.40;;;;;;;;;;5000469;28;58406;-66
2023/10/09 08:57:30;;;;;;;2.10;1.40;;;;;;;;;;4999055;28;58446;-68
2023/10/09 08:59:56;;;;;;;;;;;;;;;;;;4997504;28;59028;-67
2023/10/09 09:02:22;;;;;;;6.03;1.90;;;;;;;;;;4999348;28;58368;-68
2023/10/09 09:04:50;;;;;;;1.35;1.10;;;;;;;;;;4996693;28;59351;-67
2023/10/09 09:07:26;;;;;;;1.20;1.10;;;;;;;;;;4992304;28;58555;-67
2023/10/09 09:10:03;;;;;;;1.05;0.85;;;;;;;;;;4996157;28;62815;-66
2023/10/09 09:12:31;;;;;;;3.08;2.03;;;;;;;;;;4997894;28;58999;-67
2023/10/09 09:14:57;;;;;;;2.17;1.77;;;;;;;;;;4992605;28;58604;-69
2023/10/09 09:17:23;;;;;;;1.77;1.30;;;;;;;;;;4992549;28;59515;-72
2023/10/09 09:19:49;;;;;;;5.45;1.45;;;;;;;;;;4995391;28;60352;-71
2023/10/09 09:22:15;;;;;;;2.42;1.25;;;;;;;;;;4995224;28;58398;-68
2023/10/09 09:24:47;;;;;;;1.63;1.20;;;;;;;;;;4995293;28;59272;-67
2023/10/09 09:27:12;;;;;;;4.15;1.52;;;;;;;;;;4998005;28;58515;-67
2023/10/09 09:29:37;;;;;;;2.33;1.63;;;;;;;;;;4998545;28;59615;-66
2023/10/09 09:32:17;;;;;;;1.30;1.20;;;;;;;;;;4996731;28;58575;-69
2023/10/09 09:34:49;;;;;;;1.13;1.02;;;;;;;;;;4992970;28;58450;-69
2023/10/09 09:37:21;;;;;;;2.95;0.98;;;;;;;;;;4996891;28;59743;-68
2023/10/09 09:39:51;;;;;;;1.30;1.13;;;;;;;;;;4994110;28;58724;-67
2023/10/09 09:42:18;;;;;;;3.25;1.92;;;;;;;;;;4996760;28;58725;-65
2023/10/09 09:44:44;;;;;;;1.13;1.02;;;;;;;;;;4995369;28;59555;-65
2023/10/09 09:47:13;;;;;;;1.73;1.42;;;;;;;;;;4997643;28;59354;-64
2023/10/09 09:49:41;;;;;;;2.00;1.10;;;;;;;;;;4997913;28;59557;-64
2023/10/09 09:52:10;;;;;;;1.60;1.50;;;;;;;;;;4998153;28;59380;-65
2023/10/09 09:54:36;;;;;;;;;;;;;;;;;;4992166;28;58381;-66
2023/10/09 09:57:08;;;;;;;2.20;1.17;;;;;;;;;;4992533;28;58990;-69
2023/10/09 09:59:35;;;;;;;0.98;0.88;;;;;;;;;;4993849;28;59901;-69
2023/10/09 10:02:06;;;;;;;2.08;1.42;;;;;;;;;;4993712;28;58583;-66
2023/10/09 10:04:35;;;;;;;1.40;1.30;;;;;;;;;;4994257;28;59939;-68
2023/10/09 10:07:03;;;;;;;1.83;1.67;;;;;;;;;;4993138;28;59449;-68
2023/10/09 10:09:39;;;;;;;1.67;1.30;;;;;;;;;;4994408;28;58925;-67
2023/10/09 10:12:11;;;;;;;1.67;1.58;;;;;;;;;;4997853;28;58920;-68
2023/10/09 10:17:59;;;;;;;7.95;1.50;;;;;;;;;;4998886;28;58637;-68
2023/10/09 10:20:25;;;;;;;1.58;1.48;;;;;;;;;;4993058;28;59323;-68
2023/10/09 10:22:51;;;;;;;3.53;1.00;;;;;;;;;;5002387;28;58476;-68
2023/10/09 10:25:49;;;;;;;1.05;0.95;;;;;;;;;;5002000;28;58429;-68
2023/10/09 10:28:28;;;;;;;3.75;1.13;;;;;;;;;;5000643;28;65268;-68
2023/10/09 10:30:54;;;;;;;1.38;1.27;;;;;;;;;;5002239;28;58433;-68
2023/10/09 10:33:22;;;;;;;1.17;1.08;;;;;;;;;;5002603;28;60389;-68
2023/10/09 10:35:52;;;;;;;1.08;1.00;;;;;;;;;;5001768;28;58573;-67
2023/10/09 10:38:45;;;;;;;1.75;1.40;;;;;;;;;;4999893;28;59501;-68
2023/10/09 10:41:11;;;;;;;1.73;0.93;;;;;;;;;;5001199;28;59881;-68
2023/10/09 10:49:14;;;;;;;2.30;1.35;;;;;;;;;;5001168;28;63240;-68
2023/10/09 10:51:39;;;;;;;2.38;1.23;;;;;;;;;;5001960;28;58490;-68
2023/10/09 10:56:49;;;;;;;1.42;1.20;;;;;;;;;;4998526;28;59240;-68
2023/10/09 10:59:22;;;;;;;1.10;1.00;;;;;;;;;;5000740;28;60295;-68
2023/10/09 11:02:27;;;;;;;2.33;1.52;;;;;;;;;;4999041;28;58561;-67
2023/10/09 11:04:41;;;;;;;1.02;0.82;;;;;;;;;;5001247;28;58476;-67
2023/10/09 11:07:12;;;;;;;1.10;0.83;;;;;;;;;;4999132;28;60623;-67
2023/10/09 11:18:20;;;;;;;1.27;1.02;;;;;;;;;;4998125;28;58683;-68
2023/10/09 11:23:38;;;;;;;1.02;0.95;;;;;;;;;;4997440;28;58501;-68
2023/10/09 11:29:13;;;;;;;1.20;1.10;;;;;;;;;;4998044;28;58461;-68
2023/10/09 11:31:57;;;;;;;1.50;0.80;;;;;;;;;;4995409;28;58826;-67
2023/10/09 11:34:31;;;;;;;0.80;0.75;;;;;;;;;;5001117;28;58454;-65
2023/10/09 11:36:58;;;;;;;2.05;0.93;;;;;;;;;;4999294;28;64161;-65
2023/10/09 11:39:37;;;;;;;1.10;0.77;;;;;;;;;;4999829;28;59625;-65
2023/10/09 11:42:07;;;;;;;2.70;1.08;;;;;;;;;;5000478;28;58481;-66
2023/10/09 11:44:39;;;;;;;1.23;0.85;;;;;;;;;;4995754;28;58559;-65
2023/10/09 11:52:35;;;;;;;1.15;1.05;;;;;;;;;;4996665;28;58476;-65
2023/10/09 11:55:02;;;;;;;0.65;0.65;;;;;;;;;;4998542;28;58479;-65
2023/10/09 11:57:31;;;;;;;0.85;0.85;;;;;;;;;;4995271;28;58739;-64
2023/10/09 11:59:57;;;;;;;1.55;0.95;;;;;;;;;;4994743;28;58883;-65
2023/10/09 12:02:23;;;;;;;0.70;0.55;;;;;;;;;;4996186;28;58415;-65
2023/10/09 12:04:48;;;;;;;1.00;0.60;;;;;;;;;;4997604;28;59586;-64
2023/10/09 12:07:14;;;;;;;1.02;0.98;;;;;;;;;;5000673;28;58355;-65
2023/10/09 12:09:39;;;;;;;1.47;1.37;;;;;;;;;;4998193;28;59461;-65
2023/10/09 12:12:05;;;;;;;2.17;0.93;;;;;;;;;;4994367;28;58374;-65
2023/10/09 12:14:35;;;;;;;0.73;0.63;;;;;;;;;;4998547;28;58397;-66
2023/10/09 12:17:05;;;;;;;0.90;0.57;;;;;;;;;;4999349;28;60648;-66
2023/10/09 12:19:39;;;;;;;0.60;0.60;;;;;;;;;;4995856;28;59793;-65
2023/10/09 12:22:05;;;;;;;1.05;0.88;;;;;;;;;;4999979;28;58414;-66
2023/10/09 12:24:32;;;;;;;1.05;0.73;;;;;;;;;;4999611;28;59355;-65
2023/10/09 12:26:58;;;;;;;2.33;1.02;;;;;;;;;;4996309;28;59114;-65
2023/10/09 12:29:24;;;;;;;4.15;1.77;;;;;;;;;;4999156;28;59489;-66
2023/10/09 12:31:58;;;;;;;0.85;0.85;;;;;;;;;;4999527;28;58777;-65
2023/10/09 12:34:30;;;;;;;3.75;0.82;;;;;;;;;;4999807;28;58341;-67
2023/10/09 12:37:00;;;;;;;3.05;0.50;;;;;;;;;;4997721;28;63898;-67
2023/10/09 12:39:31;;;;;;;2.53;1.10;;;;;;;;;;4998861;28;58442;-67
2023/10/09 12:41:58;;;;;;;2.50;1.63;;;;;;;;;;5000631;28;58489;-66
2023/10/09 12:44:27;;;;;;;0.83;0.80;;;;;;;;;;4997749;28;58883;-66
2023/10/09 12:46:52;;;;;;;1.52;0.93;;;;;;;;;;4994756;28;59033;-66
2023/10/09 12:49:18;;;;;;;1.88;0.90;;;;;;;;;;5000816;28;58307;-66
2023/10/09 12:51:44;;;;;;;4.78;1.27;;;;;;;;;;4995749;28;58876;-65
2023/10/09 12:54:09;;;;;;;2.07;0.97;;;;;;;;;;4999500;28;58542;-65
2023/10/09 12:56:37;;;;;;;2.83;1.30;;;;;;;;;;4999183;28;59541;-67
2023/10/09 12:59:04;;;;;;;0.98;0.88;;;;;;;;;;4997883;28;58596;-70
2023/10/09 13:01:31;;;;;;;5.23;0.83;;;;;;;;;;4996228;28;58931;-66
2023/10/09 13:04:00;;;;;;;1.63;0.68;;;;;;;;;;4998791;28;59836;-66
2023/10/09 13:06:25;;;;;;;2.17;1.00;;;;;;;;;;4997300;28;59948;-69
2023/10/09 13:08:51;;;;;;;1.05;0.68;;;;;;;;;;4998344;28;58435;-69
2023/10/09 13:11:17;;;;;;;1.48;1.05;;;;;;;;;;4998705;28;59323;-65
2023/10/09 13:13:43;;;;;;;1.10;1.00;;;;;;;;;;4996632;28;58580;-69
2023/10/09 13:16:20;;;;;;;3.17;1.33;;;;;;;;;;4998477;28;59834;-67
2023/10/09 13:18:49;;;;;;;0.73;0.73;;;;;;;;;;4997157;28;58537;-67
2023/10/09 13:21:16;;;;;;;3.10;1.13;;;;;;;;;;4999284;28;58492;-72
2023/10/09 13:23:46;;;;;;;4.60;1.25;;;;;;;;;;4996993;28;60441;-71
2023/10/09 13:26:17;;;;;;;4.68;1.42;;;;;;;;;;4996281;28;58398;-73
2023/10/09 13:28:46;;;;;;;0.98;0.98;;;;;;;;;;4997431;28;59002;-66
2023/10/09 13:31:14;;;;;;;2.75;1.25;;;;;;;;;;4998734;28;58584;-67
2023/10/09 13:33:40;;;;;;;2.03;1.27;;;;;;;;;;4996969;28;58507;-67
2023/10/09 13:36:15;;;;;;;13.18;1.60;;;;;;;;;;4997767;28;58568;-67
2023/10/09 13:38:43;;;;;;;1.10;0.88;;;;;;;;;;4996293;28;59196;-68
2023/10/09 13:41:12;;;;;;;3.80;1.00;;;;;;;;;;4996563;28;58418;-68
2023/10/09 13:43:40;;;;;;;1.50;0.98;;;;;;;;;;4997251;28;60215;-67
2023/10/09 13:46:05;;;;;;;4.70;0.75;;;;;;;;;;4997667;28;58758;-68
2023/10/09 13:48:37;;;;;;;2.17;1.03;;;;;;;;;;4996823;28;58445;-68
2023/10/09 13:51:07;;;;;;;0.82;0.82;;;;;;;;;;4989318;28;59702;-67
2023/10/09 13:53:32;;;;;;;1.15;0.98;;;;;;;;;;5000779;28;59313;-68
2023/10/09 13:55:57;;;;;;;5.67;1.20;;;;;;;;;;4997765;28;59726;-67
2023/10/09 13:58:22;;;;;;;0.95;0.88;;;;;;;;;;4991631;28;60556;-67
2023/10/09 14:00:49;;;;;;;1.30;0.80;;;;;;;;;;4994053;28;58393;-67
2023/10/09 14:03:19;;;;;;;3.70;0.97;;;;;;;;;;4996635;28;58702;-67
2023/10/09 14:05:54;;;;;;;2.35;0.60;;;;;;;;;;4995630;28;59827;-67
2023/10/09 14:08:21;;;;;;;2.95;0.90;;;;;;;;;;4995710;28;58482;-67
2023/10/09 14:10:48;;;;;;;1.52;1.35;;;;;;;;;;4995317;28;59538;-67
2023/10/09 14:13:13;;;;;;;0.65;0.50;;;;;;;;;;4994581;28;60080;-67
2023/10/09 14:15:41;;;;;;;1.10;0.40;;;;;;;;;;4995967;28;58338;-67
2023/10/09 14:18:08;;;;;;;1.30;0.80;;;;;;;;;;4996984;28;60067;-67
2023/10/09 14:20:33;;;;;;;4.25;1.40;;;;;;;;;;4996928;28;58413;-67
2023/10/09 14:23:06;;;;;;;2.70;0.80;;;;;;;;;;4997982;28;59478;-67
2023/10/09 14:25:31;;;;;;;1.95;0.90;;;;;;;;;;4992884;28;58907;-66
2023/10/09 14:27:57;;;;;;;3.25;0.98;;;;;;;;;;4997976;28;58470;-65
2023/10/09 14:30:30;;;;;;;11.68;4.20;;;;;;;;;;4994628;28;60221;-66
2023/10/09 14:32:56;;;;;;;22.08;8.02;;;;;;;;;;4991770;28;60333;-66
2023/10/09 14:35:26;;;;;;;19.75;6.55;;;;;;;;;;4994916;28;58394;-67
2023/10/09 14:37:51;;;;;;;17.98;6.35;;;;;;;;;;4992943;28;58549;-67
2023/10/09 14:40:20;;;;;;;13.37;6.10;;;;;;;;;;4995140;28;58562;-67
2023/10/09 14:42:46;;;;;;;11.38;4.80;;;;;;;;;;4993900;28;60240;-67
2023/10/09 14:45:15;;;;;;;12.43;5.53;;;;;;;;;;4993283;28;58560;-66
2023/10/09 14:47:41;;;;;;;7.28;3.88;;;;;;;;;;4995540;28;58424;-67
2023/10/09 14:50:08;;;;;;;10.55;4.25;;;;;;;;;;4995515;28;59368;-66
2023/10/09 14:52:34;;;;;;;7.93;3.92;;;;;;;;;;4992587;28;59039;-67
2023/10/09 14:55:00;;;;;;;6.88;3.08;;;;;;;;;;4995503;28;58557;-67
2023/10/09 14:57:25;;;;;;;7.60;3.40;;;;;;;;;;4992821;28;60463;-66
2023/10/09 14:59:51;;;;;;;10.45;3.97;;;;;;;;;;4996061;28;58610;-67
2023/10/09 15:02:16;;;;;;;7.78;3.55;;;;;;;;;;4997716;28;59712;-67
2023/10/09 15:04:42;;;;;;;5.13;2.80;;;;;;;;;;4995720;28;59297;-67
2023/10/09 15:07:07;;;;;;;5.63;2.60;;;;;;;;;;4999576;28;58521;-67
2023/10/09 15:09:36;;;;;;;8.50;3.00;;;;;;;;;;5000302;28;59295;-67
2023/10/09 15:12:01;;;;;;;7.28;2.50;;;;;;;;;;4998396;28;59194;-66
2023/10/09 15:14:26;;;;;;;4.95;2.88;;;;;;;;;;4999419;28;58557;-68
2023/10/09 15:16:52;;;;;;;6.47;2.38;;;;;;;;;;4994822;28;59514;-68
2023/10/09 15:19:17;;;;;;;7.60;3.57;;;;;;;;;;4999093;28;58527;-70
2023/10/09 15:21:45;;;;;;;5.23;2.50;;;;;;;;;;5001074;28;58624;-66
2023/10/09 15:24:15;;;;;;;4.47;3.13;;;;;;;;;;4998475;28;59270;-66
2023/10/09 15:26:41;;;;;;;4.32;3.08;;;;;;;;;;4998881;28;58508;-67
2023/10/09 15:29:06;;;;;;;8.13;3.55;;;;;;;;;;5001552;28;59290;-65
2023/10/09 15:31:32;;;;;;;6.03;3.47;;;;;;;;;;4999266;28;58576;-66
2023/10/09 15:33:57;;;;;;;8.18;3.22;;;;;;;;;;5000892;28;58347;-66
2023/10/09 15:36:25;;;;;;;5.55;3.33;;;;;;;;;;5000118;28;58627;-69
2023/10/09 15:38:50;;;;;;;7.20;3.42;;;;;;;;;;4997444;28;58473;-69
2023/10/09 15:41:16;;;;;;;4.60;3.00;;;;;;;;;;4997351;28;58370;-74
2023/10/09 15:43:41;;;;;;;4.80;2.90;;;;;;;;;;4991943;28;58837;-74
2023/10/09 15:46:16;;;;;;;6.22;2.38;;;;;;;;;;4995779;28;58427;-70
2023/10/09 15:48:42;;;;;;;5.07;2.50;;;;;;;;;;4994104;28;59315;-75
2023/10/09 15:51:14;;;;;;;3.63;1.88;;;;;;;;;;4993374;28;58996;-74
2023/10/09 15:53:40;;;;;;;5.75;2.83;;;;;;;;;;4997047;28;58548;-69
2023/10/09 15:56:07;;;;;;;6.13;2.53;;;;;;;;;;4999576;28;59601;-72
2023/10/09 15:58:32;;;;;;;5.38;2.72;;;;;;;;;;4997917;28;59934;-75
2023/10/09 16:00:57;;;;;;;8.17;3.10;;;;;;;;;;4992846;28;58650;-71
2023/10/09 16:03:24;;;;;;;4.97;2.73;;;;;;;;;;4995689;28;60123;-68
2023/10/09 16:05:49;;;;;;;4.10;2.85;;;;;;;;;;4997755;28;58509;-75
2023/10/09 16:08:14;;;;;;;4.87;3.13;;;;;;;;;;4998889;28;58479;-76
2023/10/09 16:10:39;;;;;;;4.93;3.80;;;;;;;;;;4997505;28;59899;-72
2023/10/09 16:13:09;;;;;;;5.70;2.77;;;;;;;;;;4999852;28;58453;-67
2023/10/09 16:15:41;;;;;;;2.92;2.28;;;;;;;;;;4997866;28;58794;-69
2023/10/09 16:18:06;;;;;;;3.75;2.55;;;;;;;;;;4997775;28;58942;-65
2023/10/09 16:20:32;;;;;;;4.18;2.47;;;;;;;;;;4997322;28;58537;-71
2023/10/09 16:22:58;;;;;;;7.53;2.65;;;;;;;;;;4998549;28;59157;-71
2023/10/09 16:25:24;;;;;;;3.95;2.53;;;;;;;;;;4997624;28;59814;-69
2023/10/09 16:27:50;;;;;;;6.83;3.00;;;;;;;;;;4995218;28;65390;-72
2023/10/09 16:30:18;;;;;;;2.55;1.80;;;;;;;;;;4991131;28;59938;-70
2023/10/09 16:32:44;;;;;;;3.65;2.22;;;;;;;;;;4995894;28;58319;-71
2023/10/09 16:35:09;;;;;;;3.75;2.70;;;;;;;;;;4994483;28;59234;-70
2023/10/09 16:37:34;;;;;;;4.00;2.05;;;;;;;;;;4994643;28;59197;-70
2023/10/09 16:40:05;;;;;;;2.17;1.60;;;;;;;;;;4995521;28;58391;-70
2023/10/09 16:42:35;;;;;;;2.75;1.83;;;;;;;;;;4988766;28;60571;-70
2023/10/09 16:45:01;;;;;;;4.50;1.73;;;;;;;;;;4992116;28;60066;-69
2023/10/09 16:47:28;;;;;;;2.03;1.58;;;;;;;;;;4993634;28;58592;-71
2023/10/09 16:49:54;;;;;;;2.90;1.90;;;;;;;;;;4995108;28;58960;-69
2023/10/09 16:52:19;;;;;;;2.58;1.30;;;;;;;;;;4991132;28;58413;-71
2023/10/09 16:54:44;;;;;;;2.05;1.33;;;;;;;;;;4988120;28;60022;-70
2023/10/09 16:57:10;;;;;;;4.60;1.95;;;;;;;;;;4995102;28;58551;-69
2023/10/09 16:59:36;;;;;;;4.03;1.83;;;;;;;;;;4994119;28;58670;-71
2023/10/09 17:02:01;;;;;;;2.65;1.50;;;;;;;;;;4989196;28;59851;-70
2023/10/09 17:04:26;;;;;;;2.17;1.37;;;;;;;;;;4989039;28;58708;-70
2023/10/09 17:06:55;;;;;;;2.60;1.60;;;;;;;;;;4993030;28;58766;-69
2023/10/09 17:09:20;;;;;;;4.22;1.60;;;;;;;;;;4989893;28;60322;-70
2023/10/09 17:11:51;;;;;;;2.85;1.55;;;;;;;;;;4990653;28;58544;-70
2023/10/09 17:14:19;;;;;;;1.80;1.08;;;;;;;;;;4993088;28;60321;-69
2023/10/09 17:16:47;;;;;;;;;;;;;;;;;;4991630;28;59723;-70
2023/10/09 17:19:13;;;;;;;2.40;1.42;;;;;;;;;;4995482;28;58425;-70